createdAt,value
2023-04-22T00:00:43.977Z,10.23
2023-04-22T00:03:12.323Z,11.33
2023-04-22T00:05:42.082Z,14.37
2023-04-22T00:08:10.455Z,12.27
2023-04-22T00:10:38.608Z,23.97
2023-04-22T00:13:06.820Z,17.60
2023-04-22T00:15:36.226Z,22.87
2023-04-22T00:18:04.729Z,20.30
2023-04-22T00:20:33.150Z,21.93
2023-04-22T00:23:01.398Z,20.80
2023-04-22T00:25:29.618Z,20.43
2023-04-22T00:27:57.818Z,24.47
2023-04-22T00:30:26.089Z,27.67
2023-04-22T00:32:56.203Z,25.10
2023-04-22T00:35:24.328Z,25.90
2023-04-22T00:37:52.625Z,27.33
2023-04-22T00:40:21.753Z,29.47
2023-04-22T00:42:52.039Z,26.50
2023-04-22T00:45:21.769Z,24.83
2023-04-22T00:47:50.356Z,25.87
2023-04-22T00:50:20.689Z,26.23
2023-04-22T00:52:48.830Z,24.53
2023-04-22T00:55:17.358Z,25.83
2023-04-22T00:57:45.895Z,25.03
2023-04-22T01:00:15.276Z,27.93
2023-04-22T01:02:43.697Z,26.00
2023-04-22T01:05:12.078Z,23.57
2023-04-22T01:07:41.582Z,24.03
2023-04-22T01:10:10.533Z,23.43
2023-04-22T01:12:38.724Z,26.20
2023-04-22T01:15:08.770Z,24.57
2023-04-22T01:17:37.188Z,24.87
2023-04-22T01:20:05.967Z,23.67
2023-04-22T01:22:40.441Z,26.47
2023-04-22T01:25:13.746Z,24.20
2023-04-22T01:27:42.230Z,26.27
2023-04-22T01:30:11.988Z,25.07
2023-04-22T01:32:41.243Z,21.47
2023-04-22T01:35:09.947Z,21.43
2023-04-22T01:37:38.426Z,24.10
2023-04-22T01:40:09.284Z,21.90
2023-04-22T01:42:39.202Z,22.80
2023-04-22T01:45:08.206Z,22.80
2023-04-22T01:47:36.409Z,22.57
2023-04-22T01:50:04.737Z,22.63
2023-04-22T01:52:32.788Z,21.10
2023-04-22T01:55:02.849Z,26.40
2023-04-22T01:57:31.031Z,24.23
2023-04-22T02:00:00.719Z,22.57
2023-04-22T02:02:29.065Z,18.77
2023-04-22T02:04:57.350Z,20.13
2023-04-22T02:07:25.750Z,18.77
2023-04-22T02:09:53.961Z,20.03
2023-04-22T02:12:22.173Z,21.10
2023-04-22T02:14:50.279Z,17.90
2023-04-22T02:17:19.885Z,20.33
2023-04-22T02:19:48.034Z,20.43
2023-04-22T02:22:16.437Z,21.20
2023-04-22T02:24:44.595Z,17.37
2023-04-22T02:27:12.736Z,21.53
2023-04-22T02:29:42.140Z,24.73
2023-04-22T02:32:10.439Z,20.33
2023-04-22T02:34:39.828Z,21.57
2023-04-22T02:37:26.567Z,20.93
2023-04-22T02:39:54.739Z,19.23
2023-04-22T02:42:22.821Z,20.83
2023-04-22T02:44:50.949Z,19.40
2023-04-22T02:47:18.959Z,19.57
2023-04-22T02:49:48.591Z,23.37
2023-04-22T02:52:16.646Z,18.73
2023-04-22T02:54:44.784Z,27.17
2023-04-22T02:57:12.863Z,26.53
2023-04-22T02:59:41.233Z,23.43
2023-04-22T03:02:10.766Z,23.07
2023-04-22T03:04:39.146Z,21.87
2023-04-22T03:07:08.775Z,21.43
2023-04-22T03:09:37.080Z,21.17
2023-04-22T03:12:05.806Z,20.43
2023-04-22T03:14:33.968Z,21.60
2023-04-22T03:17:02.492Z,25.40
2023-04-22T03:19:30.910Z,25.47
2023-04-22T03:21:59.310Z,26.23
2023-04-22T03:24:29.068Z,23.93
2023-04-22T03:26:57.222Z,24.57
2023-04-22T03:29:25.369Z,21.23
2023-04-22T03:31:55.613Z,24.07
2023-04-22T03:34:23.866Z,21.43
2023-04-22T03:36:51.972Z,26.63
2023-04-22T03:39:20.238Z,24.63
2023-04-22T03:41:49.779Z,24.80
2023-04-22T03:44:18.007Z,24.20
2023-04-22T03:46:46.068Z,24.63
2023-04-22T03:49:14.601Z,21.97
2023-04-22T03:51:42.747Z,23.50
2023-04-22T03:54:10.919Z,24.83
2023-04-22T03:56:39.206Z,23.63
2023-04-22T03:59:08.695Z,23.87
2023-04-22T04:01:36.899Z,22.17
2023-04-22T04:04:05.370Z,22.67
2023-04-22T04:06:33.594Z,22.07
2023-04-22T04:09:02.305Z,26.77
2023-04-22T04:11:30.409Z,20.70
2023-04-22T04:13:58.723Z,25.33
2023-04-22T04:16:28.302Z,23.70
2023-04-22T04:18:56.575Z,20.93
2023-04-22T04:21:24.690Z,25.53
2023-04-22T04:23:53.040Z,24.67
2023-04-22T04:26:21.593Z,22.90
2023-04-22T04:28:50.276Z,26.17
2023-04-22T04:31:18.837Z,31.33
2023-04-22T04:33:48.831Z,31.93
2023-04-22T04:36:16.929Z,31.70
2023-04-22T04:38:45.357Z,29.87
2023-04-22T04:41:14.592Z,31.20
2023-04-22T04:43:42.956Z,27.10
2023-04-22T04:46:11.391Z,26.87
2023-04-22T04:48:39.643Z,25.90
2023-04-22T04:51:09.514Z,20.13
2023-04-22T04:53:37.731Z,23.07
2023-04-22T04:56:06.576Z,19.77
2023-04-22T04:58:34.700Z,24.30
2023-04-22T05:01:02.954Z,21.13
2023-04-22T05:03:31.205Z,20.40
2023-04-22T05:05:59.730Z,18.10
2023-04-22T05:08:29.331Z,19.83
2023-04-22T05:10:57.466Z,15.73
2023-04-22T05:13:26.514Z,18.27
2023-04-22T05:15:54.759Z,18.90
2023-04-22T05:18:23.458Z,13.80
2023-04-22T05:20:51.561Z,12.90
2023-04-22T05:23:19.654Z,12.73
2023-04-22T05:25:51.402Z,12.23
2023-04-22T05:28:21.078Z,13.83
2023-04-22T05:30:49.224Z,13.47
2023-04-22T05:33:17.365Z,16.30
2023-04-22T05:35:45.575Z,14.17
2023-04-22T05:38:13.594Z,14.10
2023-04-22T05:40:41.918Z,13.47
2023-04-22T05:43:11.866Z,11.83
2023-04-22T05:45:40.098Z,12.05
2023-04-22T05:48:08.577Z,17.58
2023-04-22T05:50:36.959Z,11.17
2023-04-22T05:53:08.016Z,12.88
2023-04-22T05:55:36.481Z,12.93
2023-04-22T05:58:04.665Z,16.80
2023-04-22T06:00:34.298Z,13.27
2023-04-22T06:03:02.456Z,12.97
2023-04-22T06:05:30.862Z,13.33
2023-04-22T06:07:59.152Z,16.50
2023-04-22T06:10:27.442Z,17.77
2023-04-22T06:12:56.077Z,13.60
2023-04-22T06:15:24.220Z,12.48
2023-04-22T06:17:53.707Z,12.88
2023-04-22T06:20:22.296Z,13.30
2023-04-22T06:22:51.058Z,12.93
2023-04-22T06:25:19.345Z,20.05
2023-04-22T06:27:47.520Z,13.60
2023-04-22T06:30:16.176Z,15.17
2023-04-22T06:32:44.334Z,11.05
2023-04-22T06:35:13.785Z,9.93
2023-04-22T06:37:42.547Z,10.50
2023-04-22T06:40:11.694Z,9.90
2023-04-22T06:42:39.924Z,12.55
2023-04-22T06:45:09.631Z,17.83
2023-04-22T06:47:37.862Z,10.90
2023-04-22T06:50:06.823Z,14.13
2023-04-22T06:52:37.012Z,15.82
2023-04-22T06:55:05.457Z,23.45
2023-04-22T06:57:33.675Z,20.35
2023-04-22T07:00:03.743Z,17.95
2023-04-22T07:02:32.231Z,11.93
2023-04-22T07:05:00.730Z,13.70
2023-04-22T07:07:29.241Z,14.32
2023-04-22T07:09:59.875Z,14.65
2023-04-22T07:12:28.038Z,12.57
2023-04-22T07:14:57.180Z,19.52
2023-04-22T07:17:25.638Z,13.95
2023-04-22T07:19:54.364Z,15.77
2023-04-22T07:22:22.617Z,11.80
2023-04-22T07:24:50.739Z,11.45
2023-04-22T07:27:20.534Z,11.00
2023-04-22T07:29:48.578Z,13.68
2023-04-22T07:32:16.742Z,17.58
2023-04-22T07:34:44.949Z,17.15
2023-04-22T07:37:13.119Z,10.77
2023-04-22T07:39:42.002Z,11.52
2023-04-22T07:42:10.321Z,9.63
2023-04-22T07:44:39.933Z,14.50
2023-04-22T07:47:08.853Z,9.73
2023-04-22T07:49:37.502Z,12.93
2023-04-22T07:52:06.003Z,11.35
2023-04-22T07:54:34.115Z,14.30
2023-04-22T07:57:02.304Z,10.43
2023-04-22T07:59:30.906Z,10.27
2023-04-22T08:02:01.497Z,15.25
2023-04-22T08:04:30.097Z,9.60
2023-04-22T08:06:58.472Z,20.40
2023-04-22T08:09:26.603Z,10.18
2023-04-22T08:11:55.174Z,10.27
2023-04-22T08:14:23.372Z,9.32
2023-04-22T08:16:53.227Z,12.00
2023-04-22T08:19:25.253Z,9.95
2023-04-22T08:21:53.971Z,9.98
2023-04-22T08:24:22.504Z,18.05
2023-04-22T08:26:50.824Z,10.75
2023-04-22T08:29:20.254Z,7.75
2023-04-22T08:31:51.030Z,14.93
2023-04-22T08:34:19.252Z,10.20
2023-04-22T08:36:48.863Z,15.93
2023-04-22T08:39:17.844Z,10.10
2023-04-22T08:41:47.605Z,9.40
2023-04-22T08:44:16.011Z,7.90
2023-04-22T08:46:47.251Z,15.90
2023-04-22T08:49:16.704Z,14.65
2023-04-22T08:51:46.541Z,10.85
2023-04-22T08:54:16.444Z,16.77
2023-04-22T08:56:46.553Z,17.13
2023-04-22T08:59:15.150Z,21.13
2023-04-22T09:01:44.569Z,17.15
2023-04-22T09:04:15.384Z,11.55
2023-04-22T09:06:43.584Z,9.57
2023-04-22T09:09:11.699Z,11.75
2023-04-22T09:11:41.292Z,22.92
2023-04-22T09:14:09.365Z,20.75
2023-04-22T09:16:43.720Z,13.55
2023-04-22T09:19:15.221Z,10.25
2023-04-22T09:21:43.858Z,14.05
2023-04-22T09:24:13.143Z,10.43
2023-04-22T09:26:43.867Z,14.50
2023-04-22T09:29:15.909Z,14.05
2023-04-22T09:31:44.260Z,11.70
2023-04-22T09:34:12.394Z,11.80
2023-04-22T09:36:41.148Z,12.77
2023-04-22T09:39:09.815Z,12.25
2023-04-22T09:41:39.865Z,14.18
2023-04-22T09:44:16.531Z,11.98
2023-04-22T09:46:45.469Z,9.30
2023-04-22T09:49:14.036Z,10.50
2023-04-22T09:51:43.269Z,13.95
2023-04-22T09:54:12.586Z,8.02
2023-04-22T09:56:49.523Z,12.02
2023-04-22T09:59:23.405Z,8.23
2023-04-22T10:01:54.000Z,8.15
2023-04-22T10:04:23.582Z,9.00
2023-04-22T10:06:52.331Z,8.35
2023-04-22T10:09:21.926Z,7.70
2023-04-22T10:11:52.782Z,9.60
2023-04-22T10:14:22.751Z,8.95
2023-04-22T10:16:54.979Z,11.60
2023-04-22T10:19:24.875Z,10.40
2023-04-22T10:21:57.164Z,11.00
2023-04-22T10:24:28.292Z,9.18
2023-04-22T10:26:58.813Z,5.57
2023-04-22T10:29:36.912Z,6.43
2023-04-22T10:32:09.046Z,7.20
2023-04-22T10:34:39.512Z,9.88
2023-04-22T10:37:09.252Z,7.75
2023-04-22T10:39:37.547Z,5.63
2023-04-22T10:42:15.562Z,7.57
2023-04-22T10:44:50.793Z,6.60
2023-04-22T10:47:29.737Z,5.68
2023-04-22T10:50:20.776Z,8.10
2023-04-22T10:52:51.450Z,6.97
2023-04-22T10:55:21.536Z,8.80
2023-04-22T10:57:51.643Z,11.73
2023-04-22T11:00:24.447Z,8.75
2023-04-22T11:02:55.192Z,8.48
2023-04-22T11:05:27.368Z,9.75
2023-04-22T11:07:56.991Z,8.20
2023-04-22T11:10:44.080Z,9.75
2023-04-22T11:13:15.223Z,7.85
2023-04-22T11:15:46.283Z,8.50
2023-04-22T11:18:22.425Z,16.33
2023-04-22T11:20:51.958Z,11.52
2023-04-22T11:23:25.316Z,5.38
2023-04-22T11:25:58.033Z,7.72
2023-04-22T11:28:26.578Z,7.63
2023-04-22T11:31:03.540Z,6.25
2023-04-22T11:33:33.460Z,7.93
2023-04-22T11:36:02.072Z,4.18
2023-04-22T11:38:30.168Z,13.18
2023-04-22T11:40:58.970Z,8.35
2023-04-22T11:43:27.170Z,19.92
2023-04-22T11:45:58.556Z,9.35
2023-04-22T11:48:26.834Z,9.32
2023-04-22T11:51:11.247Z,7.53
2023-04-22T11:53:41.305Z,3.08
2023-04-22T11:56:09.500Z,6.60
2023-04-22T11:58:41.133Z,7.57
2023-04-22T12:01:14.996Z,5.55
2023-04-22T12:03:44.659Z,5.10
2023-04-22T12:06:13.240Z,7.63
2023-04-22T12:08:43.784Z,8.13
2023-04-22T12:11:13.124Z,6.72
2023-04-22T12:13:44.090Z,3.53
2023-04-22T12:16:15.358Z,7.38
2023-04-22T12:18:50.011Z,5.47
2023-04-22T12:21:21.632Z,3.60
2023-04-22T12:23:51.835Z,2.57
2023-04-22T12:26:23.657Z,4.00
2023-04-22T12:28:55.572Z,3.43
2023-04-22T12:31:25.835Z,7.00
2023-04-22T12:33:55.528Z,3.63
2023-04-22T12:36:25.197Z,3.67
2023-04-22T12:38:55.756Z,3.97
2023-04-22T12:41:24.343Z,4.57
2023-04-22T12:43:52.953Z,3.70
2023-04-22T12:46:21.428Z,6.70
2023-04-22T12:48:51.142Z,4.20
2023-04-22T12:51:19.431Z,7.27
2023-04-22T12:53:48.958Z,5.40
2023-04-22T12:56:17.178Z,5.93
2023-04-22T12:58:45.455Z,6.27
2023-04-22T13:01:13.645Z,6.17
2023-04-22T13:03:42.055Z,4.90
2023-04-22T13:06:11.954Z,5.47
2023-04-22T13:08:40.169Z,6.38
2023-04-22T13:11:08.347Z,5.05
2023-04-22T13:13:36.680Z,8.40
2023-04-22T13:16:04.917Z,8.25
2023-04-22T13:18:33.164Z,5.97
2023-04-22T13:21:01.286Z,6.30
2023-04-22T13:23:31.016Z,6.53
2023-04-22T13:26:03.751Z,6.05
2023-04-22T13:28:32.184Z,3.83
2023-04-22T13:31:01.101Z,7.05
2023-04-22T13:33:29.334Z,5.15
2023-04-22T13:35:57.493Z,6.03
2023-04-22T13:38:25.833Z,6.90
2023-04-22T13:40:58.714Z,5.43
2023-04-22T13:43:27.719Z,5.88
2023-04-22T13:45:56.835Z,6.88
2023-04-22T13:48:25.229Z,8.23
2023-04-22T13:50:53.637Z,7.13
2023-04-22T13:53:21.730Z,11.98
2023-04-22T13:55:50.282Z,8.52
2023-04-22T13:58:19.888Z,5.78
2023-04-22T14:00:48.446Z,6.13
2023-04-22T14:03:17.000Z,6.32
2023-04-22T14:05:45.485Z,10.13
2023-04-22T14:08:13.914Z,11.90
2023-04-22T14:10:42.189Z,5.72
2023-04-22T14:13:10.322Z,4.30
2023-04-22T14:15:39.875Z,3.70
2023-04-22T14:18:08.436Z,5.13
2023-04-22T14:20:36.789Z,5.05
2023-04-22T14:23:05.399Z,5.57
2023-04-22T14:25:33.621Z,9.88
2023-04-22T14:28:01.815Z,3.00
2023-04-22T14:30:29.973Z,3.53
2023-04-22T14:33:00.499Z,23.30
2023-04-22T14:35:28.788Z,8.73
2023-04-22T14:37:57.003Z,4.03
2023-04-22T14:40:28.157Z,4.30
2023-04-22T14:42:56.521Z,3.55
2023-04-22T14:45:26.485Z,6.00
2023-04-22T14:47:55.631Z,6.07
2023-04-22T14:50:26.843Z,4.53
2023-04-22T14:52:56.406Z,6.63
2023-04-22T14:55:24.987Z,2.97
2023-04-22T14:57:56.775Z,5.03
2023-04-22T15:00:25.549Z,4.72
2023-04-22T15:02:54.243Z,3.92
2023-04-22T15:05:23.683Z,4.40
2023-04-22T15:07:54.049Z,5.95
2023-04-22T15:10:22.478Z,5.30
2023-04-22T15:12:50.581Z,6.10
2023-04-22T15:15:19.219Z,3.75
2023-04-22T15:17:47.632Z,6.93
2023-04-22T15:20:17.041Z,11.50
2023-04-22T15:22:45.841Z,5.97
2023-04-22T15:25:17.915Z,3.55
2023-04-22T15:27:46.719Z,5.60
2023-04-22T15:30:15.969Z,8.68
2023-04-22T15:32:44.290Z,8.05
2023-04-22T15:35:12.460Z,4.22
2023-04-22T15:37:40.860Z,6.40
2023-04-22T15:40:11.124Z,3.47
2023-04-22T15:42:40.660Z,4.03
2023-04-22T15:45:09.870Z,5.80
2023-04-22T15:47:41.201Z,3.65
2023-04-22T15:50:11.313Z,5.82
2023-04-22T15:52:41.057Z,3.85
2023-04-22T15:55:11.287Z,3.58
2023-04-22T15:57:41.733Z,4.13
2023-04-22T16:00:14.118Z,4.82
2023-04-22T16:02:44.054Z,6.07
2023-04-22T16:05:14.269Z,4.80
2023-04-22T16:07:42.521Z,4.32
2023-04-22T16:10:12.078Z,5.10
2023-04-22T16:12:44.216Z,5.07
2023-04-22T16:15:14.450Z,3.85
2023-04-22T16:17:43.789Z,4.55
2023-04-22T16:20:12.412Z,9.52
2023-04-22T16:22:40.593Z,6.43
2023-04-22T16:25:10.537Z,6.28
2023-04-22T16:27:38.864Z,3.60
2023-04-22T16:30:09.773Z,5.22
2023-04-22T16:32:38.461Z,9.30
2023-04-22T16:35:07.729Z,7.35
2023-04-22T16:37:36.909Z,6.85
2023-04-22T16:40:08.097Z,7.82
2023-04-22T16:42:36.447Z,5.20
2023-04-22T16:45:05.050Z,5.72
2023-04-22T16:47:34.732Z,15.82
2023-04-22T16:50:03.022Z,4.68
2023-04-22T16:52:31.324Z,13.48
2023-04-22T16:55:00.453Z,4.50
2023-04-22T16:57:28.915Z,6.03
2023-04-22T16:59:57.111Z,10.52
2023-04-22T17:02:25.562Z,12.65
2023-04-22T17:04:55.458Z,21.20
2023-04-22T17:07:23.612Z,10.27
2023-04-22T17:09:51.766Z,4.55
2023-04-22T17:12:20.192Z,7.07
2023-04-22T17:14:48.355Z,5.30
2023-04-22T17:17:16.444Z,6.72
2023-04-22T17:19:44.792Z,5.28
2023-04-22T17:22:14.413Z,5.90
2023-04-22T17:24:42.594Z,10.27
2023-04-22T17:27:10.776Z,7.72
2023-04-22T17:29:38.933Z,5.47
2023-04-22T17:32:07.696Z,5.22
2023-04-22T17:34:35.934Z,4.30
2023-04-22T17:37:04.346Z,10.48
2023-04-22T17:39:33.902Z,4.82
2023-04-22T17:42:02.499Z,5.93
2023-04-22T17:44:31.191Z,4.97
2023-04-22T17:46:59.454Z,6.45
2023-04-22T17:49:27.599Z,10.13
2023-04-22T17:51:55.732Z,9.27
2023-04-22T17:54:24.546Z,9.73
2023-04-22T17:56:54.060Z,7.63
2023-04-22T17:59:22.252Z,9.95
2023-04-22T18:01:50.555Z,7.15
2023-04-22T18:04:19.033Z,8.82
2023-04-22T18:06:47.309Z,8.20
2023-04-22T18:09:15.465Z,13.90
2023-04-22T18:11:43.581Z,6.67
2023-04-22T18:14:15.836Z,6.82
2023-04-22T18:16:43.984Z,8.02
2023-04-22T18:19:12.165Z,7.22
2023-04-22T18:21:49.654Z,7.95
2023-04-22T18:24:25.395Z,8.95
2023-04-22T18:26:53.981Z,6.93
2023-04-22T18:29:23.963Z,10.32
2023-04-22T18:31:52.189Z,7.43
2023-04-22T18:34:20.516Z,6.80
2023-04-22T18:36:48.641Z,7.45
2023-04-22T18:39:16.875Z,5.88
2023-04-22T18:41:44.990Z,8.40
2023-04-22T18:44:13.162Z,7.23
2023-04-22T18:46:42.826Z,10.30
2023-04-22T18:49:11.036Z,7.72
2023-04-22T18:51:42.007Z,8.37
2023-04-22T18:54:10.416Z,6.33
2023-04-22T18:56:38.469Z,8.23
2023-04-22T18:59:06.566Z,10.40
2023-04-22T19:01:35.943Z,8.03
2023-04-22T19:04:07.516Z,9.80
2023-04-22T19:06:38.744Z,9.73
2023-04-22T19:09:07.062Z,7.43
2023-04-22T19:11:35.211Z,8.90
2023-04-22T19:14:03.656Z,7.37
2023-04-22T19:16:31.847Z,9.87
2023-04-22T19:18:59.914Z,8.03
2023-04-22T19:21:30.154Z,10.77
2023-04-22T19:23:58.872Z,9.13
2023-04-22T19:26:29.049Z,12.47
2023-04-22T19:28:57.301Z,9.07
2023-04-22T19:31:25.863Z,10.07
2023-04-22T19:33:54.219Z,14.73
2023-04-22T19:36:22.557Z,8.97
2023-04-22T19:38:52.144Z,9.57
2023-04-22T19:41:20.492Z,9.23
2023-04-22T19:43:48.957Z,8.97
2023-04-22T19:46:17.184Z,13.43
2023-04-22T19:48:45.856Z,17.53
2023-04-22T19:51:15.112Z,11.20
2023-04-22T19:53:43.488Z,13.63
2023-04-22T19:56:13.941Z,10.57
2023-04-22T19:58:43.613Z,9.07
2023-04-22T20:01:12.393Z,10.73
2023-04-22T20:03:41.258Z,10.27
2023-04-22T20:06:09.893Z,11.50
2023-04-22T20:08:41.885Z,10.90
2023-04-22T20:11:11.773Z,9.83
2023-04-22T20:13:42.350Z,10.70
2023-04-22T20:16:11.264Z,9.77
2023-04-22T20:18:39.765Z,8.80
2023-04-22T20:21:09.083Z,7.73
2023-04-22T20:23:37.792Z,12.67
2023-04-22T20:26:06.850Z,8.13
2023-04-22T20:28:46.419Z,8.00
2023-04-22T20:31:18.377Z,8.87
2023-04-22T20:33:46.840Z,8.43
2023-04-22T20:36:17.484Z,11.33
2023-04-22T20:38:47.510Z,9.03
2023-04-22T20:41:18.354Z,8.90
2023-04-22T20:43:48.370Z,11.03
2023-04-22T20:46:17.021Z,9.50
2023-04-22T20:48:45.327Z,12.37
2023-04-22T20:51:13.463Z,9.07
2023-04-22T20:53:41.820Z,10.73
2023-04-22T20:56:10.811Z,9.83
2023-04-22T20:58:38.872Z,10.10
2023-04-22T21:01:16.639Z,12.00
2023-04-22T21:03:54.961Z,9.13
2023-04-22T21:06:23.539Z,8.10
2023-04-22T21:08:52.078Z,7.53
2023-04-22T21:11:20.905Z,15.20
2023-04-22T21:13:49.805Z,9.47
2023-04-22T21:16:20.869Z,11.73
2023-04-22T21:18:50.104Z,10.30
2023-04-22T21:21:20.796Z,11.40
2023-04-22T21:23:49.878Z,11.37
2023-04-22T21:26:19.875Z,9.47
2023-04-22T21:28:49.798Z,12.73
2023-04-22T21:31:20.193Z,8.93
2023-04-22T21:33:48.378Z,13.30
2023-04-22T21:36:16.796Z,11.17
2023-04-22T21:38:45.419Z,9.37
2023-04-22T21:41:14.053Z,12.27
2023-04-22T21:43:42.149Z,9.30
2023-04-22T21:46:11.044Z,9.37
2023-04-22T21:48:41.322Z,10.63
2023-04-22T21:51:09.876Z,11.50
2023-04-22T21:53:38.197Z,10.63
2023-04-22T21:56:06.766Z,12.27
2023-04-22T21:58:34.903Z,14.13
2023-04-22T22:01:03.058Z,13.50
2023-04-22T22:03:31.636Z,9.33
2023-04-22T22:06:01.244Z,11.63
2023-04-22T22:08:30.205Z,10.73
2023-04-22T22:10:59.564Z,12.03
2023-04-22T22:13:27.751Z,11.43
2023-04-22T22:15:57.605Z,10.07
2023-04-22T22:18:25.816Z,12.17
2023-04-22T22:20:55.148Z,10.80
2023-04-22T22:23:27.086Z,21.97
2023-04-22T22:25:55.328Z,12.77
2023-04-22T22:28:23.552Z,11.43
2023-04-22T22:30:51.624Z,13.83
2023-04-22T22:33:19.733Z,14.50
2023-04-22T22:35:47.805Z,12.40
2023-04-22T22:38:15.930Z,15.00
2023-04-22T22:40:45.431Z,11.30
2023-04-22T22:43:13.838Z,14.47
2023-04-22T22:45:42.048Z,11.37
2023-04-22T22:48:10.317Z,13.17
2023-04-22T22:50:39.031Z,12.20
2023-04-22T22:53:11.227Z,10.73
2023-04-22T22:55:42.488Z,15.13
2023-04-22T22:58:22.568Z,9.73
2023-04-22T23:00:51.977Z,13.60
2023-04-22T23:03:20.795Z,11.73
2023-04-22T23:05:52.688Z,9.17
2023-04-22T23:08:20.807Z,9.57
2023-04-22T23:10:48.991Z,9.60
2023-04-22T23:13:18.427Z,9.47
2023-04-22T23:15:46.545Z,11.63
2023-04-22T23:18:17.603Z,11.70
2023-04-22T23:20:46.222Z,12.60
2023-04-22T23:23:17.096Z,11.77
2023-04-22T23:25:45.401Z,12.23
2023-04-22T23:28:14.167Z,12.70
2023-04-22T23:30:45.102Z,13.60
2023-04-22T23:33:15.660Z,15.73
2023-04-22T23:35:45.909Z,12.47
2023-04-22T23:38:14.040Z,14.20
2023-04-22T23:40:42.288Z,15.23
2023-04-22T23:43:10.342Z,11.90
2023-04-22T23:45:38.568Z,11.60
2023-04-22T23:48:08.806Z,17.07
2023-04-22T23:50:37.106Z,12.23
2023-04-22T23:53:05.238Z,14.47
2023-04-22T23:55:34.104Z,14.63
2023-04-22T23:58:03.168Z,15.80
